createdAt,value
2023-03-02T00:00:23.644Z,0
2023-03-02T00:01:07.142Z,0
2023-03-02T00:01:56.250Z,0
2023-03-02T00:02:44.319Z,0
2023-03-02T00:03:36.324Z,0
2023-03-02T00:04:21.255Z,0
2023-03-02T00:05:06.247Z,0
2023-03-02T00:05:55.435Z,0
2023-03-02T00:06:49.452Z,0
2023-03-02T00:07:43.277Z,0
2023-03-02T00:08:29.775Z,0
2023-03-02T00:09:13.572Z,0
2023-03-02T00:10:03.750Z,0
2023-03-02T00:10:51.772Z,0
2023-03-02T00:11:43.966Z,0
2023-03-02T00:12:31.395Z,0
2023-03-02T00:13:20.266Z,0
2023-03-02T00:14:10.335Z,0
2023-03-02T00:14:58.291Z,0
2023-03-02T00:15:50.270Z,0
2023-03-02T00:16:44.453Z,0
2023-03-02T00:19:34.805Z,0
2023-03-02T00:20:15.340Z,0
2023-03-02T00:20:55.836Z,0
2023-03-02T00:21:36.353Z,0
2023-03-02T00:24:59.710Z,0
2023-03-02T00:25:40.231Z,0
2023-03-02T00:26:20.754Z,0
2023-03-02T00:27:01.251Z,0
2023-03-02T00:27:42.306Z,0
2023-03-02T00:28:22.814Z,0
2023-03-02T00:29:03.330Z,0
2023-03-02T00:29:43.857Z,0
2023-03-02T00:30:24.379Z,0
2023-03-02T00:37:09.621Z,0
2023-03-02T00:37:50.150Z,0
2023-03-02T00:38:30.662Z,0
2023-03-02T00:39:11.731Z,0
2023-03-02T00:39:53.089Z,0
2023-03-02T00:40:33.608Z,0
2023-03-02T00:42:05.919Z,0
2023-03-02T00:42:46.430Z,0
2023-03-02T00:43:26.946Z,0
2023-03-02T00:44:07.461Z,0
2023-03-02T00:44:48.017Z,0
2023-03-02T00:48:51.146Z,0
2023-03-02T00:49:31.674Z,0
2023-03-02T00:50:12.196Z,0
2023-03-02T00:50:53.311Z,0
2023-03-02T00:51:33.833Z,0
2023-03-02T00:52:14.361Z,0
2023-03-02T00:52:54.874Z,0
2023-03-02T00:53:35.415Z,0
2023-03-02T00:54:15.963Z,0
2023-03-02T01:01:01.213Z,0
2023-03-02T01:01:41.732Z,0
2023-03-02T01:02:22.334Z,0
2023-03-02T01:03:02.892Z,0
2023-03-02T01:03:43.294Z,0
2023-03-02T01:04:23.840Z,0
2023-03-02T01:05:04.372Z,0
2023-03-02T01:05:44.867Z,0
2023-03-02T01:06:25.397Z,0
2023-03-02T01:09:03.962Z,0
2023-03-02T01:09:44.528Z,0
2023-03-02T01:10:25.049Z,0
2023-03-02T01:11:05.590Z,0
2023-03-02T01:14:28.821Z,0
2023-03-02T01:15:09.385Z,0
2023-03-02T01:15:49.940Z,0
2023-03-02T01:16:30.781Z,0
2023-03-02T01:17:11.010Z,0
2023-03-02T01:17:51.535Z,0
2023-03-02T01:18:32.065Z,0
2023-03-02T01:19:12.639Z,0
2023-03-02T01:19:53.149Z,0
2023-03-02T01:28:16.186Z,0
2023-03-02T01:29:03.287Z,0
2023-03-02T01:29:50.289Z,0
2023-03-02T01:30:33.306Z,0
2023-03-02T01:31:17.609Z,0
2023-03-02T01:32:02.802Z,0
2023-03-02T01:32:50.682Z,0
2023-03-02T01:33:33.996Z,0
2023-03-02T01:34:19.803Z,0
2023-03-02T01:35:01.293Z,0
2023-03-02T01:35:42.447Z,0
2023-03-02T01:39:50.370Z,0
2023-03-02T01:40:35.199Z,0
2023-03-02T01:41:22.326Z,0
2023-03-02T01:43:34.682Z,0
2023-03-02T01:45:05.681Z,0
2023-03-02T01:45:52.160Z,0
2023-03-02T01:47:20.883Z,0
2023-03-02T01:48:04.713Z,0
2023-03-02T01:49:36.217Z,0
2023-03-02T01:50:20.299Z,0
2023-03-02T01:51:57.214Z,0
2023-03-02T01:52:41.579Z,0
2023-03-02T01:53:26.209Z,0
2023-03-02T01:54:10.539Z,0
2023-03-02T01:56:32.661Z,0
2023-03-02T01:57:16.245Z,0
2023-03-02T01:58:00.231Z,0
2023-03-02T01:58:44.257Z,0
2023-03-02T02:00:14.586Z,0
2023-03-02T02:01:50.726Z,0
2023-03-02T02:02:39.682Z,0
2023-03-02T02:03:35.208Z,0
2023-03-02T02:04:19.331Z,0
2023-03-02T02:05:08.775Z,0
2023-03-02T02:05:52.807Z,0
2023-03-02T02:06:42.273Z,0
2023-03-02T02:08:15.246Z,0
2023-03-02T02:09:00.357Z,0
2023-03-02T02:09:50.182Z,0
2023-03-02T02:10:42.433Z,0
2023-03-02T02:12:10.486Z,0
2023-03-02T02:13:43.761Z,0
2023-03-02T02:14:39.044Z,0
2023-03-02T02:15:30.754Z,0
2023-03-02T02:16:16.330Z,0
2023-03-02T02:17:03.318Z,0
2023-03-02T02:18:38.197Z,0
2023-03-02T02:19:19.677Z,0
2023-03-02T02:20:25.687Z,0
2023-03-02T02:21:23.811Z,0
2023-03-02T02:22:11.152Z,0
2023-03-02T02:23:06.194Z,0
2023-03-02T02:24:02.200Z,0
2023-03-02T02:26:44.905Z,0
2023-03-02T02:27:25.395Z,0
2023-03-02T02:28:06.589Z,0
2023-03-02T02:28:47.145Z,0
2023-03-02T02:32:10.882Z,0
2023-03-02T02:32:51.361Z,0
2023-03-02T02:33:31.786Z,0
2023-03-02T02:34:12.303Z,0
2023-03-02T02:34:52.827Z,0
2023-03-02T02:35:33.366Z,0
2023-03-02T02:36:13.872Z,0
2023-03-02T02:36:54.393Z,0
2023-03-02T02:42:19.413Z,0
2023-03-02T02:42:59.907Z,0
2023-03-02T02:43:40.401Z,0
2023-03-02T02:44:20.942Z,0
2023-03-02T02:45:01.458Z,0
2023-03-02T02:45:42.019Z,0
2023-03-02T02:46:22.560Z,0
2023-03-02T02:47:03.035Z,0
2023-03-02T02:47:43.563Z,0
2023-03-02T02:48:24.097Z,0
2023-03-02T02:53:10.403Z,0
2023-03-02T02:53:50.917Z,0
2023-03-02T02:54:31.454Z,0
2023-03-02T02:55:11.971Z,0
2023-03-02T02:55:52.503Z,0
2023-03-02T02:56:33.440Z,0
2023-03-02T02:57:13.554Z,0
2023-03-02T02:57:54.102Z,0
2023-03-02T03:03:19.912Z,0
2023-03-02T03:04:01.004Z,0
2023-03-02T03:04:41.494Z,0
2023-03-02T03:05:23.403Z,0
2023-03-02T03:06:03.922Z,0
2023-03-02T03:06:44.442Z,0
2023-03-02T03:12:39.684Z,0
2023-03-02T03:13:20.240Z,0
2023-03-02T03:14:00.720Z,0
2023-03-02T03:14:41.236Z,0
2023-03-02T03:18:44.352Z,0
2023-03-02T03:19:24.904Z,0
2023-03-02T03:20:05.421Z,0
2023-03-02T03:20:45.941Z,0
2023-03-02T03:21:26.459Z,0
2023-03-02T03:22:06.970Z,0
2023-03-02T03:22:47.487Z,0
2023-03-02T03:23:28.013Z,0
2023-03-02T03:24:08.524Z,0
2023-03-02T03:24:49.040Z,0
2023-03-02T03:30:15.150Z,0
2023-03-02T03:30:55.703Z,0
2023-03-02T03:31:36.191Z,0
2023-03-02T03:32:16.791Z,0
2023-03-02T03:32:57.224Z,0
2023-03-02T03:33:37.759Z,0
2023-03-02T03:34:18.274Z,0
2023-03-02T03:34:58.801Z,0
2023-03-02T03:40:24.434Z,0
2023-03-02T03:41:04.950Z,0
2023-03-02T03:41:45.471Z,0
2023-03-02T03:42:26.016Z,0
2023-03-02T03:43:06.533Z,0
2023-03-02T03:43:47.061Z,0
2023-03-02T03:44:27.721Z,0
2023-03-02T03:45:08.153Z,0
2023-03-02T03:45:48.744Z,0
2023-03-02T03:46:29.213Z,0
2023-03-02T03:53:14.377Z,0
2023-03-02T03:53:54.901Z,0
2023-03-02T03:54:35.415Z,0
2023-03-02T03:55:15.924Z,0
2023-03-02T03:55:56.444Z,0
2023-03-02T03:56:36.965Z,0
2023-03-02T03:59:16.385Z,0
2023-03-02T03:59:56.925Z,0
2023-03-02T04:00:38.503Z,0
2023-03-02T04:01:19.045Z,0
2023-03-02T04:02:41.043Z,0
2023-03-02T04:03:21.534Z,0
2023-03-02T04:04:02.921Z,0
2023-03-02T04:04:43.454Z,0
2023-03-02T04:05:24.000Z,0
2023-03-02T04:06:04.502Z,0
2023-03-02T04:06:45.570Z,0
2023-03-02T04:12:51.306Z,0
2023-03-02T04:13:31.829Z,0
2023-03-02T04:14:12.341Z,0
2023-03-02T04:14:52.860Z,0
2023-03-02T04:15:33.458Z,0
2023-03-02T04:18:11.824Z,0
2023-03-02T04:18:53.229Z,0
2023-03-02T04:19:33.746Z,0
2023-03-02T04:20:14.280Z,0
2023-03-02T04:25:25.517Z,0
2023-03-02T04:26:06.031Z,0
2023-03-02T04:26:46.583Z,0
2023-03-02T04:27:27.052Z,0
2023-03-02T04:30:00.453Z,0
2023-03-02T04:30:41.048Z,0
2023-03-02T04:31:21.610Z,0
2023-03-02T04:34:01.203Z,0
2023-03-02T04:34:42.604Z,0
2023-03-02T04:35:23.157Z,0
2023-03-02T04:36:03.677Z,0
2023-03-02T04:38:21.779Z,0
2023-03-02T04:39:02.344Z,0
2023-03-02T04:39:44.563Z,0
2023-03-02T04:40:25.571Z,0
2023-03-02T04:41:46.675Z,0
2023-03-02T04:42:27.223Z,0
2023-03-02T04:43:07.760Z,0
2023-03-02T04:45:40.878Z,0
2023-03-02T04:46:21.433Z,0
2023-03-02T04:47:02.632Z,0
2023-03-02T04:47:43.159Z,0
2023-03-02T04:51:05.837Z,0
2023-03-02T04:53:42.254Z,0
2023-03-02T04:54:22.760Z,0
2023-03-02T04:55:03.285Z,0
2023-03-02T04:55:45.671Z,0
2023-03-02T04:57:59.162Z,0
2023-03-02T04:58:39.672Z,0
2023-03-02T04:59:20.313Z,0
2023-03-02T05:00:00.835Z,0
2023-03-02T05:02:42.890Z,0
2023-03-02T05:03:24.263Z,0
2023-03-02T05:04:07.427Z,0
2023-03-02T05:04:49.917Z,0
2023-03-02T05:07:19.803Z,0
2023-03-02T05:08:00.337Z,0
2023-03-02T05:08:41.578Z,0
2023-03-02T05:09:22.132Z,0
2023-03-02T05:10:03.589Z,0
2023-03-02T05:10:44.090Z,0
2023-03-02T05:11:25.580Z,0
2023-03-02T05:12:06.073Z,0
2023-03-02T05:12:47.587Z,0
2023-03-02T05:16:23.567Z,0
2023-03-02T05:17:04.064Z,0
2023-03-02T05:17:44.609Z,0
2023-03-02T05:18:25.171Z,0
2023-03-02T05:19:47.694Z,0
2023-03-02T05:20:28.261Z,0
2023-03-02T05:23:07.088Z,0
2023-03-02T05:23:47.663Z,0
2023-03-02T05:24:28.188Z,0
2023-03-02T05:25:09.252Z,0
2023-03-02T05:27:22.772Z,0
2023-03-02T05:28:03.327Z,0
2023-03-02T05:28:43.873Z,0
2023-03-02T05:29:24.422Z,0
2023-03-02T05:32:07.548Z,0
2023-03-02T05:32:49.887Z,0
2023-03-02T05:33:30.414Z,0
2023-03-02T05:38:12.639Z,0
2023-03-02T05:38:53.153Z,0
2023-03-02T05:39:33.664Z,0
2023-03-02T05:40:14.193Z,0
2023-03-02T05:44:11.110Z,0
2023-03-02T05:44:51.716Z,0
2023-03-02T05:45:32.228Z,0
2023-03-02T05:46:12.764Z,0
2023-03-02T05:50:47.628Z,0
2023-03-02T05:51:28.055Z,0
2023-03-02T05:52:08.560Z,0
2023-03-02T05:52:49.079Z,0
2023-03-02T05:56:12.569Z,0
2023-03-02T05:56:53.094Z,0
2023-03-02T05:57:33.613Z,0
2023-03-02T05:58:14.103Z,0
2023-03-02T05:58:54.624Z,0
2023-03-02T05:59:35.130Z,0
2023-03-02T06:00:15.640Z,0
2023-03-02T06:00:56.164Z,0
2023-03-02T06:01:36.685Z,0
2023-03-02T06:02:17.238Z,0
2023-03-02T06:05:11.602Z,5
2023-03-02T06:05:52.133Z,5
2023-03-02T06:06:34.061Z,5
2023-03-02T06:07:14.792Z,5
2023-03-02T06:09:16.467Z,5
2023-03-02T06:09:56.996Z,5
2023-03-02T06:10:39.472Z,5
2023-03-02T06:11:19.939Z,5
2023-03-02T06:12:00.451Z,5
2023-03-02T06:12:40.989Z,5
2023-03-02T06:19:26.191Z,15
2023-03-02T06:20:07.689Z,15
2023-03-02T06:20:48.224Z,15
2023-03-02T06:21:28.790Z,15
2023-03-02T06:22:09.286Z,15
2023-03-02T06:22:49.844Z,15
2023-03-02T06:23:31.872Z,15
2023-03-02T06:26:56.355Z,20
2023-03-02T06:27:36.904Z,20
2023-03-02T06:28:18.447Z,20
2023-03-02T06:28:58.988Z,20
2023-03-02T06:29:39.492Z,20
2023-03-02T06:30:20.037Z,25
2023-03-02T06:34:07.011Z,30
2023-03-02T06:34:49.454Z,30
2023-03-02T06:35:30.111Z,30
2023-03-02T06:36:10.518Z,30
2023-03-02T06:36:53.638Z,30
2023-03-02T06:37:35.701Z,30
2023-03-02T06:41:29.477Z,35
2023-03-02T06:42:10.887Z,40
2023-03-02T06:42:51.483Z,40
2023-03-02T06:43:32.498Z,40
2023-03-02T06:45:45.610Z,40
2023-03-02T06:46:27.728Z,45
2023-03-02T06:47:08.208Z,45
2023-03-02T06:49:48.131Z,45
2023-03-02T06:50:28.707Z,50
2023-03-02T06:51:09.180Z,50
2023-03-02T06:51:50.384Z,50
2023-03-02T06:52:33.230Z,50
2023-03-02T06:53:14.512Z,50
2023-03-02T06:55:42.796Z,55
2023-03-02T06:56:23.318Z,55
2023-03-02T06:57:03.859Z,55
2023-03-02T06:57:44.386Z,55
2023-03-02T07:03:00.411Z,65
2023-03-02T07:03:40.974Z,65
2023-03-02T07:04:21.448Z,65
2023-03-02T07:06:59.878Z,70
2023-03-02T07:07:40.493Z,70
2023-03-02T07:08:20.978Z,70
2023-03-02T07:09:01.478Z,70
2023-03-02T07:11:44.659Z,75
2023-03-02T07:12:25.153Z,75
2023-03-02T07:13:07.436Z,75
2023-03-02T07:13:46.177Z,80
2023-03-02T07:14:26.711Z,80
2023-03-02T07:15:07.225Z,80
2023-03-02T07:15:48.396Z,80
2023-03-02T07:16:28.962Z,80
2023-03-02T07:17:09.435Z,80
2023-03-02T07:23:15.491Z,90
2023-03-02T07:23:56.683Z,90
2023-03-02T07:24:37.175Z,90
2023-03-02T07:25:17.683Z,90
2023-03-02T07:25:58.193Z,90
2023-03-02T07:26:38.717Z,90
2023-03-02T07:27:19.233Z,90
2023-03-02T07:33:25.048Z,100
2023-03-02T07:34:05.563Z,100
2023-03-02T07:34:46.094Z,100
2023-03-02T07:35:26.663Z,105
2023-03-02T07:36:07.148Z,105
2023-03-02T07:36:47.693Z,105
2023-03-02T07:37:28.259Z,105
2023-03-02T07:38:09.478Z,105
2023-03-02T07:43:34.645Z,115
2023-03-02T07:44:15.160Z,115
2023-03-02T07:44:55.674Z,115
2023-03-02T07:45:36.202Z,120
2023-03-02T07:46:16.892Z,120
2023-03-02T07:46:57.377Z,120
2023-03-02T07:47:37.742Z,120
2023-03-02T07:48:18.268Z,120
2023-03-02T07:48:58.790Z,120
2023-03-02T07:49:39.307Z,120
2023-03-02T07:55:44.569Z,125
2023-03-02T07:56:25.113Z,130
2023-03-02T07:57:05.607Z,130
2023-03-02T07:57:46.141Z,130
2023-03-02T07:58:26.656Z,130
2023-03-02T07:59:07.162Z,130
2023-03-02T07:59:47.683Z,130
2023-03-02T08:00:28.257Z,130
2023-03-02T08:01:08.779Z,135
2023-03-02T08:01:49.995Z,135
2023-03-02T08:07:54.669Z,145
2023-03-02T08:08:36.467Z,145
2023-03-02T08:09:18.084Z,145
2023-03-02T08:09:58.514Z,145
2023-03-02T08:10:39.046Z,145
2023-03-02T08:15:34.224Z,155
2023-03-02T08:16:14.806Z,150
2023-03-02T08:16:58.864Z,150
2023-03-02T08:17:39.353Z,150
2023-03-02T08:19:54.591Z,160
2023-03-02T08:20:35.131Z,165
2023-03-02T08:21:15.628Z,160
2023-03-02T08:21:56.184Z,160
2023-03-02T08:24:26.044Z,155
2023-03-02T08:25:06.626Z,155
2023-03-02T08:25:48.670Z,155
2023-03-02T08:26:29.849Z,155
2023-03-02T08:28:49.481Z,155
2023-03-02T08:29:30.002Z,160
2023-03-02T08:30:11.170Z,160
2023-03-02T08:30:51.680Z,160
2023-03-02T08:33:34.792Z,160
2023-03-02T08:34:15.313Z,160
2023-03-02T08:34:55.840Z,160
2023-03-02T08:35:36.401Z,160
2023-03-02T08:36:16.907Z,160
2023-03-02T08:36:57.406Z,160
2023-03-02T08:37:37.948Z,165
2023-03-02T08:38:18.441Z,170
2023-03-02T08:38:58.962Z,170
2023-03-02T08:46:01.689Z,200
2023-03-02T08:46:42.156Z,195
2023-03-02T08:47:22.703Z,195
2023-03-02T08:48:03.238Z,200
2023-03-02T08:51:25.865Z,235
2023-03-02T08:52:06.352Z,270
2023-03-02T08:52:46.875Z,300
2023-03-02T08:53:27.385Z,320
2023-03-02T08:54:07.964Z,325
2023-03-02T08:54:48.549Z,325
2023-03-02T08:55:29.856Z,330
2023-03-02T08:56:10.283Z,330
2023-03-02T09:02:16.562Z,305
2023-03-02T09:02:57.052Z,300
2023-03-02T09:03:37.565Z,295
2023-03-02T09:06:16.079Z,285
2023-03-02T09:06:56.598Z,285
2023-03-02T09:07:37.659Z,280
2023-03-02T09:08:18.149Z,275
2023-03-02T09:11:40.579Z,280
2023-03-02T09:12:21.166Z,280
2023-03-02T09:13:01.616Z,285
2023-03-02T09:13:42.791Z,290
2023-03-02T09:17:57.697Z,310
2023-03-02T09:18:39.144Z,315
2023-03-02T09:19:20.220Z,315
2023-03-02T09:22:00.052Z,325
2023-03-02T09:22:40.650Z,315
2023-03-02T09:23:21.153Z,325
2023-03-02T09:24:01.755Z,335
2023-03-02T09:26:43.991Z,340
2023-03-02T09:27:24.506Z,335
2023-03-02T09:28:05.027Z,345
2023-03-02T09:28:45.568Z,340
2023-03-02T09:29:26.117Z,335
2023-03-02T09:30:06.668Z,350
2023-03-02T09:30:47.215Z,345
2023-03-02T09:31:30.091Z,340
2023-03-02T09:32:08.439Z,345
2023-03-02T09:32:49.019Z,355
2023-03-02T09:36:23.393Z,200
2023-03-02T09:37:03.918Z,245
2023-03-02T09:37:44.826Z,315
2023-03-02T09:38:24.957Z,330
2023-03-02T09:42:44.081Z,315
2023-03-02T09:43:21.157Z,315
2023-03-02T09:44:01.679Z,310
2023-03-02T09:44:42.195Z,270
2023-03-02T09:49:38.641Z,360
2023-03-02T09:50:19.189Z,365
2023-03-02T09:50:59.723Z,350
2023-03-02T09:51:40.237Z,380
2023-03-02T09:55:14.654Z,395
2023-03-02T09:55:55.225Z,345
2023-03-02T09:56:35.755Z,430
2023-03-02T09:57:16.306Z,365
2023-03-02T10:00:03.993Z,380
2023-03-02T10:00:39.767Z,395
2023-03-02T10:01:21.092Z,500
2023-03-02T10:02:01.642Z,545
2023-03-02T10:02:42.217Z,420
2023-03-02T10:03:22.690Z,395
2023-03-02T10:04:03.362Z,470
2023-03-02T10:04:43.925Z,470
2023-03-02T10:07:37.495Z,475
2023-03-02T10:08:18.023Z,495
2023-03-02T10:08:58.594Z,470
2023-03-02T10:09:39.725Z,585
2023-03-02T10:12:22.472Z,285
2023-03-02T10:15:01.619Z,455
2023-03-02T10:15:42.199Z,630
2023-03-02T10:16:22.739Z,655
2023-03-02T10:17:03.306Z,635
2023-03-02T10:21:08.554Z,655
2023-03-02T10:21:50.747Z,590
2023-03-02T10:26:05.407Z,300
2023-03-02T10:26:45.916Z,305
2023-03-02T10:27:26.584Z,365
2023-03-02T10:28:07.035Z,310
2023-03-02T10:30:40.519Z,400
2023-03-02T10:31:21.008Z,630
2023-03-02T10:32:01.697Z,385
2023-03-02T10:32:42.196Z,590
2023-03-02T10:36:45.377Z,295
2023-03-02T10:37:25.865Z,340
2023-03-02T10:38:06.394Z,535
2023-03-02T10:40:44.901Z,640
2023-03-02T10:41:25.460Z,665
2023-03-02T10:42:06.023Z,660
2023-03-02T10:42:46.551Z,665
2023-03-02T10:46:49.749Z,695
2023-03-02T10:47:30.232Z,700
2023-03-02T10:48:10.754Z,700
2023-03-02T10:48:51.268Z,695
2023-03-02T10:49:31.814Z,700
2023-03-02T10:50:12.346Z,680
2023-03-02T10:50:52.900Z,700
2023-03-02T10:51:33.411Z,710
2023-03-02T10:52:13.957Z,715
2023-03-02T10:52:59.858Z,715
2023-03-02T10:55:48.241Z,680
2023-03-02T10:56:28.730Z,695
2023-03-02T10:57:09.917Z,705
2023-03-02T10:57:50.449Z,710
2023-03-02T10:59:52.960Z,715
2023-03-02T11:00:33.512Z,710
2023-03-02T11:01:14.109Z,700
2023-03-02T11:01:54.617Z,710
2023-03-02T11:02:35.120Z,705
2023-03-02T11:03:15.668Z,690
2023-03-02T11:03:56.182Z,495
2023-03-02T11:04:36.765Z,675
2023-03-02T11:05:17.288Z,645
2023-03-02T11:05:57.819Z,440
2023-03-02T11:12:43.099Z,625
2023-03-02T11:13:23.626Z,620
2023-03-02T11:14:04.176Z,430
2023-03-02T11:14:44.735Z,405
2023-03-02T11:15:25.338Z,570
2023-03-02T11:16:05.966Z,615
2023-03-02T11:16:46.432Z,645
2023-03-02T11:17:26.957Z,675
2023-03-02T11:18:07.502Z,665
2023-03-02T11:24:13.270Z,645
2023-03-02T11:24:53.841Z,630
2023-03-02T11:25:34.361Z,640
2023-03-02T11:26:14.886Z,640
2023-03-02T11:26:55.455Z,615
2023-03-02T11:27:35.921Z,650
2023-03-02T11:28:16.504Z,655
2023-03-02T11:28:57.016Z,655
2023-03-02T11:29:37.572Z,670
2023-03-02T11:36:22.993Z,675
2023-03-02T11:37:03.544Z,675
2023-03-02T11:37:44.096Z,675
2023-03-02T11:38:25.408Z,670
2023-03-02T11:39:05.936Z,670
2023-03-02T11:39:54.908Z,685
2023-03-02T11:40:27.129Z,695
2023-03-02T11:41:07.653Z,690
2023-03-02T11:45:39.472Z,690
2023-03-02T11:46:22.013Z,690
2023-03-02T11:47:01.372Z,690
2023-03-02T11:47:45.585Z,670
2023-03-02T11:49:56.841Z,650
2023-03-02T11:50:37.407Z,650
2023-03-02T11:51:17.917Z,655
2023-03-02T11:51:58.925Z,655
2023-03-02T11:54:41.563Z,640
2023-03-02T11:55:22.079Z,650
2023-03-02T11:58:40.849Z,625
2023-03-02T11:59:22.221Z,630
2023-03-02T12:02:00.839Z,590
2023-03-02T12:02:41.242Z,585
2023-03-02T12:03:21.803Z,590
2023-03-02T12:04:02.316Z,610
2023-03-02T12:07:02.593Z,575
2023-03-02T12:07:45.761Z,590
2023-03-02T12:08:29.009Z,605
2023-03-02T12:09:11.429Z,605
2023-03-02T12:09:53.657Z,600
2023-03-02T12:13:20.105Z,590
2023-03-02T12:16:07.865Z,580
2023-03-02T12:16:49.994Z,580
2023-03-02T12:17:30.444Z,575
2023-03-02T12:18:10.935Z,580
2023-03-02T12:21:37.113Z,570
2023-03-02T12:22:17.612Z,565
2023-03-02T12:22:59.351Z,565
2023-03-02T12:23:39.998Z,565
2023-03-02T12:24:21.410Z,575
2023-03-02T12:27:46.725Z,565
2023-03-02T12:28:27.299Z,565
2023-03-02T12:29:08.291Z,560
2023-03-02T12:29:48.780Z,565
2023-03-02T12:30:30.318Z,555
2023-03-02T12:31:10.879Z,575
2023-03-02T12:36:23.225Z,560
2023-03-02T12:37:03.850Z,560
2023-03-02T12:37:44.860Z,555
2023-03-02T12:38:25.409Z,560
2023-03-02T12:40:38.686Z,555
2023-03-02T12:41:19.280Z,550
2023-03-02T12:41:59.817Z,545
2023-03-02T12:42:40.368Z,545
2023-03-02T12:46:40.541Z,550
2023-03-02T12:47:21.744Z,545
2023-03-02T12:48:02.912Z,540
2023-03-02T12:51:46.492Z,520
2023-03-02T12:52:27.144Z,520
2023-03-02T12:53:07.461Z,525
2023-03-02T12:53:47.982Z,520
2023-03-02T12:57:51.260Z,505
2023-03-02T12:58:31.837Z,500
2023-03-02T12:59:12.391Z,495
2023-03-02T12:59:52.909Z,485
2023-03-02T13:00:33.464Z,480
2023-03-02T13:01:14.075Z,480
2023-03-02T13:01:54.597Z,475
2023-03-02T13:02:35.196Z,470
2023-03-02T13:03:15.701Z,465
2023-03-02T13:10:01.428Z,450
2023-03-02T13:10:42.009Z,455
2023-03-02T13:11:22.565Z,450
2023-03-02T13:12:03.166Z,455
2023-03-02T13:12:43.930Z,445
2023-03-02T13:13:24.545Z,440
2023-03-02T13:14:05.085Z,435
2023-03-02T13:14:45.615Z,430
2023-03-02T13:20:11.406Z,410
2023-03-02T13:20:51.987Z,405
2023-03-02T13:21:32.534Z,400
2023-03-02T13:22:13.089Z,395
2023-03-02T13:22:53.631Z,395
2023-03-02T13:23:34.925Z,395
2023-03-02T13:24:15.461Z,390
2023-03-02T13:24:56.045Z,385
2023-03-02T13:29:10.847Z,370
2023-03-02T13:29:51.408Z,370
2023-03-02T13:30:32.035Z,370
2023-03-02T13:31:12.558Z,365
2023-03-02T13:34:05.863Z,365
2023-03-02T13:34:46.449Z,365
2023-03-02T13:35:27.070Z,360
2023-03-02T13:36:07.626Z,360
2023-03-02T13:41:45.246Z,350
2023-03-02T13:42:25.813Z,345
2023-03-02T13:43:06.323Z,350
2023-03-02T13:43:47.368Z,340
2023-03-02T13:46:13.644Z,330
2023-03-02T13:46:55.853Z,330
2023-03-02T13:47:37.212Z,330
2023-03-02T13:48:21.154Z,325
2023-03-02T13:49:10.043Z,320
2023-03-02T13:50:29.222Z,320
2023-03-02T13:51:11.180Z,320
2023-03-02T13:53:58.850Z,305
2023-03-02T13:54:42.690Z,305
2023-03-02T13:56:48.770Z,295
2023-03-02T13:59:00.133Z,290
2023-03-02T14:00:28.365Z,290
2023-03-02T14:01:10.790Z,290
2023-03-02T14:04:21.193Z,280
2023-03-02T14:05:02.622Z,275
2023-03-02T14:05:43.082Z,275
2023-03-02T14:06:23.632Z,275
2023-03-02T14:09:43.266Z,260
2023-03-02T14:10:24.588Z,260
2023-03-02T14:11:05.120Z,255
2023-03-02T14:11:45.649Z,255
2023-03-02T14:14:25.355Z,250
2023-03-02T14:15:05.923Z,250
2023-03-02T14:15:47.249Z,250
2023-03-02T14:16:27.787Z,250
2023-03-02T14:19:01.694Z,245
2023-03-02T14:19:41.762Z,245
2023-03-02T14:20:22.314Z,245
2023-03-02T14:21:02.865Z,245
2023-03-02T14:26:03.016Z,240
2023-03-02T14:26:43.495Z,235
2023-03-02T14:27:23.990Z,235
2023-03-02T14:28:04.532Z,235
2023-03-02T14:30:22.708Z,225
2023-03-02T14:31:03.305Z,225
2023-03-02T14:31:43.845Z,225
2023-03-02T14:32:24.428Z,220
2023-03-02T14:34:42.312Z,215
2023-03-02T14:35:22.861Z,215
2023-03-02T14:36:03.402Z,215
2023-03-02T14:36:43.954Z,215
2023-03-02T14:39:02.328Z,210
2023-03-02T14:39:42.858Z,210
2023-03-02T14:40:23.419Z,210
2023-03-02T14:42:43.139Z,205
2023-03-02T14:43:23.613Z,205
2023-03-02T14:44:04.118Z,200
2023-03-02T14:44:44.666Z,200
2023-03-02T14:47:02.519Z,195
2023-03-02T14:47:43.049Z,195
2023-03-02T14:48:23.579Z,195
2023-03-02T14:49:04.129Z,195
2023-03-02T14:52:39.504Z,185
2023-03-02T14:53:20.058Z,185
2023-03-02T14:54:00.806Z,185
2023-03-02T14:56:38.965Z,180
2023-03-02T14:57:19.439Z,180
2023-03-02T14:58:00.006Z,175
2023-03-02T14:58:41.169Z,175
2023-03-02T15:00:43.625Z,175
2023-03-02T15:03:22.437Z,170
2023-03-02T15:04:02.925Z,170
2023-03-02T15:04:43.501Z,170
2023-03-02T15:05:24.077Z,165
2023-03-02T15:08:07.052Z,120
2023-03-02T15:10:45.592Z,115
2023-03-02T15:11:26.170Z,115
2023-03-02T15:12:06.781Z,115
2023-03-02T15:12:47.359Z,115
2023-03-02T15:16:47.559Z,110
2023-03-02T15:17:28.126Z,110
2023-03-02T15:18:16.349Z,105
2023-03-02T15:20:35.898Z,105
2023-03-02T15:21:16.438Z,105
2023-03-02T15:21:56.975Z,105
2023-03-02T15:22:38.294Z,105
2023-03-02T15:24:51.064Z,100
2023-03-02T15:25:31.566Z,100
2023-03-02T15:26:12.133Z,100
2023-03-02T15:26:52.686Z,100
2023-03-02T15:29:05.781Z,100
2023-03-02T15:29:46.296Z,95
2023-03-02T15:30:26.848Z,95
2023-03-02T15:31:07.450Z,95
2023-03-02T15:35:10.700Z,90
2023-03-02T15:35:53.742Z,90
2023-03-02T15:36:32.990Z,90
2023-03-02T15:39:11.837Z,90
2023-03-02T15:39:52.369Z,90
2023-03-02T15:40:33.030Z,85
2023-03-02T15:41:13.576Z,85
2023-03-02T15:43:16.569Z,85
2023-03-02T15:43:57.140Z,85
2023-03-02T15:44:38.240Z,85
2023-03-02T15:45:18.755Z,85
2023-03-02T15:45:59.305Z,80
2023-03-02T15:46:39.903Z,80
2023-03-02T15:47:20.407Z,80
2023-03-02T15:48:00.955Z,80
2023-03-02T15:53:26.659Z,75
2023-03-02T15:54:07.204Z,75
2023-03-02T15:54:47.721Z,75
2023-03-02T15:55:28.247Z,75
2023-03-02T15:56:08.800Z,70
2023-03-02T15:56:49.467Z,70
2023-03-02T15:57:29.868Z,70
2023-03-02T15:58:11.266Z,70
2023-03-02T16:02:16.896Z,65
2023-03-02T16:02:57.484Z,65
2023-03-02T16:03:38.038Z,65
2023-03-02T16:04:18.549Z,65
2023-03-02T16:05:00.075Z,65
2023-03-02T16:05:40.650Z,65
2023-03-02T16:06:21.218Z,60
2023-03-02T16:11:06.547Z,60
2023-03-02T16:11:47.059Z,55
2023-03-02T16:12:27.596Z,55
2023-03-02T16:13:08.118Z,55
2023-03-02T16:13:48.620Z,55
2023-03-02T16:14:29.169Z,55
2023-03-02T16:15:10.585Z,55
2023-03-02T16:15:51.147Z,55
2023-03-02T16:22:37.612Z,45
2023-03-02T16:23:18.167Z,45
2023-03-02T16:23:58.643Z,45
2023-03-02T16:24:40.898Z,45
2023-03-02T16:25:19.870Z,45
2023-03-02T16:26:00.272Z,45
2023-03-02T16:26:40.807Z,40
2023-03-02T16:27:21.331Z,40
2023-03-02T16:30:14.993Z,40
2023-03-02T16:30:58.100Z,40
2023-03-02T16:31:40.117Z,35
2023-03-02T16:32:22.427Z,35
2023-03-02T16:33:04.584Z,35
2023-03-02T16:35:14.139Z,35
2023-03-02T16:37:22.162Z,30
2023-03-02T16:39:29.570Z,30
2023-03-02T16:40:10.892Z,30
2023-03-02T16:41:47.260Z,25
2023-03-02T16:43:09.816Z,25
2023-03-02T16:43:50.331Z,25
2023-03-02T16:44:33.555Z,25
2023-03-02T16:45:14.099Z,25
2023-03-02T16:48:42.414Z,20
2023-03-02T16:49:23.567Z,20
2023-03-02T16:50:07.087Z,20
2023-03-02T16:52:11.907Z,15
2023-03-02T16:52:52.460Z,15
2023-03-02T16:55:43.100Z,15
2023-03-02T16:57:52.677Z,10
2023-03-02T16:58:34.589Z,10
2023-03-02T17:00:39.629Z,10
2023-03-02T17:01:20.948Z,10
2023-03-02T17:02:02.087Z,10
2023-03-02T17:02:42.589Z,10
2023-03-02T17:05:24.443Z,5
2023-03-02T17:06:04.979Z,5
2023-03-02T17:06:58.503Z,5
2023-03-02T17:07:26.013Z,5
2023-03-02T17:10:09.034Z,5
2023-03-02T17:10:49.582Z,5
2023-03-02T17:11:30.095Z,0
2023-03-02T17:12:10.632Z,0
2023-03-02T17:12:51.161Z,0
2023-03-02T17:13:31.669Z,0
2023-03-02T17:14:12.193Z,0
2023-03-02T17:14:52.770Z,0
2023-03-02T17:15:33.301Z,0
2023-03-02T17:16:13.918Z,0
2023-03-02T17:20:11.231Z,0
2023-03-02T17:20:51.736Z,0
2023-03-02T17:21:33.134Z,0
2023-03-02T17:22:13.692Z,0
2023-03-02T17:24:55.771Z,0
2023-03-02T17:25:36.306Z,0
2023-03-02T17:26:16.834Z,0
2023-03-02T17:26:57.355Z,0
2023-03-02T17:27:37.874Z,0
2023-03-02T17:28:18.410Z,0
2023-03-02T17:28:58.942Z,0
2023-03-02T17:29:39.467Z,0
2023-03-02T17:30:19.985Z,0
2023-03-02T17:31:01.336Z,0
2023-03-02T17:38:26.234Z,0
2023-03-02T17:39:06.756Z,0
2023-03-02T17:39:47.274Z,0
2023-03-02T17:40:27.812Z,0
2023-03-02T17:41:08.363Z,0
2023-03-02T17:41:48.882Z,0
2023-03-02T17:42:29.424Z,0
2023-03-02T17:43:09.941Z,0
2023-03-02T17:45:48.623Z,0